createdAt,value
2022-09-14T00:01:54.752Z,10.33
2022-09-14T00:04:23.281Z,8.57
2022-09-14T00:06:52.535Z,8.10
2022-09-14T00:09:24.477Z,8.50
2022-09-14T00:11:53.835Z,9.93
2022-09-14T00:14:22.214Z,12.80
2022-09-14T00:16:51.184Z,7.53
2022-09-14T00:19:23.417Z,5.97
2022-09-14T00:21:53.739Z,7.93
2022-09-14T00:24:24.726Z,8.83
2022-09-14T00:26:55.461Z,7.63
2022-09-14T00:29:25.628Z,7.43
2022-09-14T00:32:00.656Z,7.77
2022-09-14T00:34:29.912Z,12.10
2022-09-14T00:36:58.138Z,5.07
2022-09-14T00:39:28.200Z,6.47
2022-09-14T00:41:56.973Z,7.00
2022-09-14T00:45:00.417Z,9.83
2022-09-14T00:47:30.617Z,7.40
2022-09-14T00:50:01.362Z,7.23
2022-09-14T00:52:32.967Z,5.70
2022-09-14T00:55:06.317Z,8.50
2022-09-14T00:57:39.150Z,6.63
2022-09-14T01:00:11.315Z,5.30
2022-09-14T01:02:40.829Z,7.73
2022-09-14T01:05:10.565Z,6.77
2022-09-14T01:07:58.969Z,7.57
2022-09-14T01:10:41.146Z,5.60
2022-09-14T01:13:23.770Z,8.83
2022-09-14T01:16:00.118Z,12.10
2022-09-14T01:18:30.799Z,8.17
2022-09-14T01:21:03.282Z,9.80
2022-09-14T01:23:44.856Z,7.97
2022-09-14T01:26:41.289Z,11.03
2022-09-14T01:29:16.235Z,8.37
2022-09-14T01:31:52.280Z,10.00
2022-09-14T01:34:31.044Z,13.33
2022-09-14T01:37:06.519Z,9.97
2022-09-14T01:39:37.091Z,7.87
2022-09-14T01:42:06.343Z,8.37
2022-09-14T01:44:38.864Z,6.17
2022-09-14T01:47:14.180Z,9.67
2022-09-14T01:49:47.118Z,6.17
2022-09-14T01:52:21.723Z,10.33
2022-09-14T01:54:53.147Z,6.13
2022-09-14T01:57:26.113Z,10.37
2022-09-14T02:00:00.500Z,8.60
2022-09-14T02:02:33.121Z,8.53
2022-09-14T02:05:08.907Z,9.70
2022-09-14T02:07:38.896Z,7.63
2022-09-14T02:10:11.238Z,7.40
2022-09-14T02:12:41.254Z,10.17
2022-09-14T02:15:13.718Z,8.63
2022-09-14T02:17:43.005Z,8.10
2022-09-14T02:20:18.293Z,7.93
2022-09-14T02:22:46.787Z,8.47
2022-09-14T02:25:15.027Z,8.30
2022-09-14T02:27:43.691Z,6.30
2022-09-14T02:30:14.140Z,7.63
2022-09-14T02:32:52.181Z,7.87
2022-09-14T02:35:27.750Z,7.73
2022-09-14T02:38:06.560Z,5.40
2022-09-14T02:40:38.452Z,8.33
2022-09-14T02:43:22.670Z,8.90
2022-09-14T02:45:59.770Z,8.17
2022-09-14T02:48:35.879Z,10.10
2022-09-14T02:51:12.575Z,6.33
2022-09-14T02:53:45.541Z,11.67
2022-09-14T02:56:15.001Z,7.73
2022-09-14T02:58:46.140Z,7.00
2022-09-14T03:01:24.859Z,5.60
2022-09-14T03:03:53.546Z,7.10
2022-09-14T03:06:22.061Z,6.40
2022-09-14T03:08:50.674Z,8.40
2022-09-14T03:11:19.380Z,5.63
2022-09-14T03:13:47.862Z,8.03
2022-09-14T03:16:19.542Z,7.97
2022-09-14T03:18:47.819Z,5.23
2022-09-14T03:21:17.731Z,7.53
2022-09-14T03:23:49.766Z,7.27
2022-09-14T03:26:20.172Z,7.43
2022-09-14T03:28:52.295Z,9.10
2022-09-14T03:31:22.385Z,8.97
2022-09-14T03:33:54.239Z,9.87
2022-09-14T03:36:23.561Z,9.90
2022-09-14T03:38:53.488Z,6.57
2022-09-14T03:41:23.651Z,8.03
2022-09-14T03:43:52.259Z,6.80
2022-09-14T03:46:24.703Z,8.33
2022-09-14T03:48:53.560Z,5.87
2022-09-14T03:51:21.681Z,6.77
2022-09-14T03:53:51.372Z,6.93
2022-09-14T03:56:24.633Z,6.10
2022-09-14T03:58:53.649Z,6.37
2022-09-14T04:01:24.798Z,7.47
2022-09-14T04:03:53.391Z,7.73
2022-09-14T04:06:21.851Z,6.80
2022-09-14T04:08:57.023Z,9.20
2022-09-14T04:11:26.183Z,8.53
2022-09-14T04:13:54.948Z,9.03
2022-09-14T04:16:25.190Z,7.73
2022-09-14T04:18:54.800Z,10.17
2022-09-14T04:21:25.888Z,7.93
2022-09-14T04:24:15.112Z,12.30
2022-09-14T04:26:45.123Z,7.90
2022-09-14T04:29:14.935Z,9.63
2022-09-14T04:31:44.511Z,8.70
2022-09-14T04:34:24.576Z,10.37
2022-09-14T04:36:53.112Z,8.27
2022-09-14T04:39:24.397Z,5.30
2022-09-14T04:41:53.215Z,5.97
2022-09-14T04:44:21.357Z,10.83
2022-09-14T04:46:51.420Z,9.83
2022-09-14T04:49:21.845Z,6.07
2022-09-14T04:51:55.023Z,9.37
2022-09-14T04:54:23.397Z,6.60
2022-09-14T04:56:51.819Z,9.93
2022-09-14T04:59:20.208Z,7.63
2022-09-14T05:01:54.285Z,4.17
2022-09-14T05:04:22.767Z,7.40
2022-09-14T05:06:51.268Z,8.40
2022-09-14T05:09:20.201Z,7.77
2022-09-14T05:11:51.893Z,5.83
2022-09-14T05:14:20.180Z,10.33
2022-09-14T05:16:48.523Z,4.40
2022-09-14T05:19:19.442Z,8.67
2022-09-14T05:21:48.166Z,8.07
2022-09-14T05:24:19.806Z,5.60
2022-09-14T05:26:58.205Z,9.40
2022-09-14T05:29:29.839Z,6.07
2022-09-14T05:32:03.165Z,7.53
2022-09-14T05:34:35.489Z,6.53
2022-09-14T05:37:06.273Z,3.63
2022-09-14T05:39:36.400Z,5.83
2022-09-14T05:42:10.666Z,9.03
2022-09-14T05:44:42.401Z,7.07
2022-09-14T05:47:13.540Z,8.50
2022-09-14T05:49:50.165Z,7.17
2022-09-14T05:52:20.189Z,9.73
2022-09-14T05:54:49.549Z,8.80
2022-09-14T05:57:22.584Z,7.80
2022-09-14T05:59:52.196Z,6.10
2022-09-14T06:02:20.482Z,8.07
2022-09-14T06:04:50.403Z,8.43
2022-09-14T06:07:20.164Z,9.53
2022-09-14T06:09:49.690Z,10.20
2022-09-14T06:12:22.057Z,7.53
2022-09-14T06:14:55.355Z,9.70
2022-09-14T06:17:24.969Z,5.37
2022-09-14T06:20:02.219Z,6.37
2022-09-14T06:22:34.762Z,7.53
2022-09-14T06:25:11.941Z,9.77
2022-09-14T06:27:44.088Z,5.97
2022-09-14T06:30:19.849Z,8.17
2022-09-14T06:32:55.358Z,5.80
2022-09-14T06:35:28.921Z,9.10
2022-09-14T06:37:58.198Z,8.03
2022-09-14T06:40:30.943Z,7.23
2022-09-14T06:43:02.394Z,7.60
2022-09-14T06:45:32.827Z,9.73
2022-09-14T06:48:03.566Z,7.70
2022-09-14T06:50:35.710Z,8.17
2022-09-14T06:53:06.128Z,9.07
2022-09-14T06:55:34.650Z,9.73
2022-09-14T06:58:06.396Z,10.63
2022-09-14T07:00:37.090Z,7.97
2022-09-14T07:03:15.682Z,8.43
2022-09-14T07:05:47.565Z,8.10
2022-09-14T07:08:16.421Z,9.47
2022-09-14T07:10:58.690Z,5.67
2022-09-14T07:13:28.061Z,5.10
2022-09-14T07:16:00.683Z,7.83
2022-09-14T07:18:33.414Z,7.30
2022-09-14T07:21:10.561Z,6.60
2022-09-14T07:23:41.794Z,8.37
2022-09-14T07:26:14.799Z,5.73
2022-09-14T07:28:46.632Z,6.07
2022-09-14T07:31:21.790Z,7.07
2022-09-14T07:33:56.659Z,6.10
2022-09-14T07:36:34.602Z,8.07
2022-09-14T07:39:09.978Z,6.63
2022-09-14T07:41:41.896Z,9.80
2022-09-14T07:44:13.207Z,6.07
2022-09-14T07:46:46.420Z,6.67
2022-09-14T07:49:18.884Z,7.33
2022-09-14T07:51:50.683Z,6.53
2022-09-14T07:54:22.174Z,10.93
2022-09-14T07:56:52.710Z,7.77
2022-09-14T07:59:35.629Z,5.30
2022-09-14T08:02:09.396Z,9.33
2022-09-14T08:04:40.355Z,7.47
2022-09-14T08:07:11.753Z,5.47
2022-09-14T08:09:47.705Z,6.07
2022-09-14T08:12:18.006Z,7.13
2022-09-14T08:14:52.058Z,5.17
2022-09-14T08:17:22.364Z,5.77
2022-09-14T08:19:51.569Z,9.77
2022-09-14T08:22:21.214Z,5.67
2022-09-14T08:24:49.285Z,4.73
2022-09-14T08:27:17.511Z,5.43
2022-09-14T08:29:46.012Z,6.13
2022-09-14T08:32:14.327Z,7.00
2022-09-14T08:34:42.384Z,9.07
2022-09-14T08:37:12.197Z,8.80
2022-09-14T08:39:42.377Z,13.90
2022-09-14T08:42:15.355Z,9.23
2022-09-14T08:44:46.521Z,11.17
2022-09-14T08:47:20.514Z,13.10
2022-09-14T08:49:52.874Z,12.67
2022-09-14T08:52:29.183Z,11.00
2022-09-14T08:55:29.366Z,12.70
2022-09-14T08:58:05.784Z,13.30
2022-09-14T09:00:55.245Z,9.90
2022-09-14T09:03:51.161Z,12.07
2022-09-14T09:06:26.458Z,14.17
2022-09-14T09:09:04.438Z,11.10
2022-09-14T09:11:54.054Z,10.77
2022-09-14T09:14:26.751Z,11.23
2022-09-14T09:16:58.244Z,8.53
2022-09-14T09:19:31.424Z,9.70
2022-09-14T09:22:01.504Z,10.73
2022-09-14T09:24:37.313Z,11.13
2022-09-14T09:27:11.551Z,7.50
2022-09-14T09:29:40.015Z,11.10
2022-09-14T09:32:12.534Z,11.93
2022-09-14T09:34:40.742Z,14.90
2022-09-14T09:37:15.524Z,9.33
2022-09-14T09:39:44.964Z,12.43
2022-09-14T09:42:21.528Z,11.27
2022-09-14T09:45:02.176Z,12.47
2022-09-14T09:47:34.869Z,13.17
2022-09-14T09:50:05.765Z,10.27
2022-09-14T09:52:37.419Z,12.37
2022-09-14T09:55:07.675Z,12.07
2022-09-14T09:57:38.459Z,12.83
2022-09-14T10:00:18.907Z,16.43
2022-09-14T10:02:47.447Z,16.70
2022-09-14T10:05:24.666Z,14.97
2022-09-14T10:07:57.081Z,15.87
2022-09-14T10:10:43.110Z,19.77
2022-09-14T10:13:23.491Z,16.83
2022-09-14T10:15:51.859Z,13.63
2022-09-14T10:18:21.142Z,15.57
2022-09-14T10:21:09.586Z,16.47
2022-09-14T10:23:39.279Z,14.53
2022-09-14T10:26:25.824Z,15.30
2022-09-14T10:28:55.440Z,11.07
2022-09-14T10:31:34.468Z,12.10
2022-09-14T10:34:02.629Z,11.87
2022-09-14T10:36:32.813Z,15.30
2022-09-14T10:39:25.999Z,11.17
2022-09-14T10:42:03.309Z,14.70
2022-09-14T10:44:57.607Z,13.97
2022-09-14T10:47:40.407Z,14.87
2022-09-14T10:50:26.454Z,13.40
2022-09-14T10:53:04.711Z,13.13
2022-09-14T10:55:42.278Z,10.10
2022-09-14T10:58:25.443Z,10.03
2022-09-14T11:01:04.266Z,7.80
2022-09-14T11:03:52.275Z,9.07
2022-09-14T11:06:34.290Z,10.03
2022-09-14T11:09:06.590Z,9.70
2022-09-14T11:11:44.378Z,10.97
2022-09-14T11:14:27.467Z,13.63
2022-09-14T11:17:14.280Z,12.17
2022-09-14T11:19:51.404Z,12.27
2022-09-14T11:22:30.560Z,9.50
2022-09-14T11:25:04.588Z,10.77
2022-09-14T11:27:41.074Z,9.13
2022-09-14T11:30:15.366Z,9.30
2022-09-14T11:32:49.650Z,10.60
2022-09-14T11:35:22.357Z,5.43
2022-09-14T11:37:56.375Z,6.80
2022-09-14T11:40:29.249Z,4.63
2022-09-14T11:43:02.516Z,4.40
2022-09-14T11:45:35.845Z,5.60
2022-09-14T11:48:40.736Z,5.33
2022-09-14T11:51:05.493Z,3.80
2022-09-14T11:53:34.803Z,3.77
2022-09-14T11:56:03.558Z,9.77
2022-09-14T11:58:31.882Z,13.97
2022-09-14T12:01:33.608Z,12.23
2022-09-14T12:04:15.862Z,11.87
2022-09-14T12:06:49.653Z,9.97
2022-09-14T12:09:52.611Z,9.07
2022-09-14T12:12:39.669Z,10.10
2022-09-14T12:15:23.771Z,8.90
2022-09-14T12:17:52.679Z,5.43
2022-09-14T12:20:45.389Z,10.47
2022-09-14T12:23:28.749Z,6.37
2022-09-14T12:26:16.762Z,3.93
2022-09-14T12:28:51.025Z,6.37
2022-09-14T12:32:05.369Z,5.80
2022-09-14T12:34:34.891Z,4.33
2022-09-14T12:37:34.440Z,4.37
2022-09-14T12:40:34.842Z,5.90
2022-09-14T12:43:45.827Z,4.50
2022-09-14T12:46:33.814Z,6.00
2022-09-14T12:49:03.998Z,4.37
2022-09-14T12:51:44.490Z,5.30
2022-09-14T12:54:26.287Z,3.80
2022-09-14T12:57:20.611Z,4.23
2022-09-14T12:59:57.787Z,7.10
2022-09-14T13:02:59.736Z,4.77
2022-09-14T13:05:30.803Z,6.00
2022-09-14T13:07:59.641Z,8.23
2022-09-14T13:10:33.827Z,8.37
2022-09-14T13:13:04.332Z,7.07
2022-09-14T13:15:37.128Z,7.37
2022-09-14T13:18:07.591Z,10.70
2022-09-14T13:20:37.752Z,7.03
2022-09-14T13:23:21.874Z,10.57
2022-09-14T13:25:51.871Z,8.53
2022-09-14T13:28:21.782Z,11.33
2022-09-14T13:30:56.836Z,10.30
2022-09-14T13:33:26.157Z,7.57
2022-09-14T13:35:56.659Z,7.47
2022-09-14T13:38:27.150Z,6.73
2022-09-14T13:41:04.707Z,6.07
2022-09-14T13:43:33.681Z,9.83
2022-09-14T13:46:03.246Z,6.33
2022-09-14T13:48:31.433Z,6.53
2022-09-14T13:51:00.051Z,12.73
2022-09-14T13:53:40.456Z,6.17
2022-09-14T13:56:22.161Z,9.27
2022-09-14T13:58:53.175Z,9.83
2022-09-14T14:01:27.957Z,10.43
2022-09-14T14:03:58.375Z,8.83
2022-09-14T14:06:30.508Z,9.27
2022-09-14T14:09:03.705Z,12.33
2022-09-14T14:11:36.653Z,9.30
2022-09-14T16:28:28.756Z,10.43
2022-09-14T16:31:07.571Z,10.50
2022-09-14T16:33:43.912Z,13.30
2022-09-14T16:36:16.961Z,15.03
2022-09-14T16:38:51.976Z,12.67
2022-09-14T16:41:20.294Z,12.13
2022-09-14T16:43:57.291Z,12.33
2022-09-14T16:46:31.714Z,10.93
2022-09-14T16:49:04.908Z,14.10
2022-09-14T16:51:38.081Z,20.03
2022-09-14T16:54:19.153Z,10.47
2022-09-14T16:56:49.201Z,12.67
2022-09-14T16:59:22.003Z,12.30
2022-09-14T17:01:55.723Z,13.80
2022-09-14T17:04:37.533Z,14.07
2022-09-14T17:07:28.658Z,18.37
2022-09-14T17:09:57.847Z,10.97
2022-09-14T17:12:26.744Z,9.87
2022-09-14T17:14:59.925Z,10.57
2022-09-14T17:17:28.764Z,10.23
2022-09-14T17:19:56.982Z,18.03
2022-09-14T17:22:32.032Z,11.20
2022-09-14T17:25:05.188Z,13.63
2022-09-14T17:27:35.544Z,12.43
2022-09-14T17:30:06.525Z,12.17
2022-09-14T17:32:35.033Z,9.63
2022-09-14T17:35:07.892Z,15.67
2022-09-14T17:37:36.921Z,11.93
2022-09-14T17:40:08.697Z,14.93
2022-09-14T17:42:48.512Z,13.40
2022-09-14T17:45:22.933Z,12.53
2022-09-14T17:47:51.747Z,16.97
2022-09-14T17:50:21.991Z,13.60
2022-09-14T17:52:51.396Z,16.07
2022-09-14T17:55:25.347Z,13.73
2022-09-14T17:57:54.492Z,15.47
2022-09-14T18:00:24.701Z,15.33
2022-09-14T18:02:53.662Z,16.77
2022-09-14T18:05:22.625Z,18.10
2022-09-14T18:07:51.697Z,14.43
2022-09-14T18:10:20.400Z,11.77
2022-09-14T18:12:49.970Z,14.17
2022-09-14T18:15:19.072Z,12.97
2022-09-14T18:17:50.614Z,15.70
2022-09-14T18:20:22.618Z,12.63
2022-09-14T18:22:51.190Z,17.43
2022-09-14T18:25:19.785Z,12.13
2022-09-14T18:27:48.310Z,14.13
2022-09-14T18:30:16.551Z,13.97
2022-09-14T18:32:46.279Z,13.63
2022-09-14T18:35:18.198Z,17.20
2022-09-14T18:37:50.520Z,20.37
2022-09-14T18:40:25.748Z,14.27
2022-09-14T18:43:07.895Z,14.90
2022-09-14T18:45:42.746Z,13.27
2022-09-14T18:48:32.342Z,15.60
2022-09-14T18:51:05.089Z,12.97
2022-09-14T18:53:35.620Z,16.47
2022-09-14T18:56:15.357Z,18.27
2022-09-14T18:58:53.054Z,21.07
2022-09-14T19:01:32.648Z,16.90
2022-09-14T19:04:16.417Z,20.40
2022-09-14T19:06:52.760Z,16.73
2022-09-14T19:09:23.167Z,17.73
2022-09-14T19:11:58.182Z,19.30
2022-09-14T19:14:31.423Z,14.40
2022-09-14T19:17:12.690Z,16.33
2022-09-14T19:19:44.212Z,19.03
2022-09-14T19:22:16.449Z,19.50
2022-09-14T19:24:48.440Z,18.13
2022-09-14T19:27:23.348Z,21.53
2022-09-14T19:30:04.546Z,18.60
2022-09-14T19:32:38.106Z,16.50
2022-09-14T19:35:08.172Z,20.80
2022-09-14T19:37:52.530Z,19.13
2022-09-14T19:40:25.160Z,20.77
2022-09-14T19:42:56.263Z,23.67
2022-09-14T19:45:31.020Z,17.53
2022-09-14T19:48:05.807Z,20.80
2022-09-14T19:50:35.138Z,15.23
2022-09-14T19:53:05.450Z,17.00
2022-09-14T19:55:33.813Z,17.67
2022-09-14T19:58:06.094Z,21.67
2022-09-14T20:00:36.286Z,18.43
2022-09-14T20:03:10.538Z,18.63
2022-09-14T20:05:44.363Z,17.63
2022-09-14T20:08:22.053Z,17.97
2022-09-14T20:10:53.619Z,20.77
2022-09-14T20:13:45.520Z,16.70
2022-09-14T20:16:21.849Z,18.83
2022-09-14T20:19:06.218Z,17.77
2022-09-14T20:21:44.621Z,18.60
2022-09-14T20:24:27.038Z,17.50
2022-09-14T20:27:05.179Z,16.00
2022-09-14T20:29:36.920Z,19.77
2022-09-14T20:32:10.725Z,17.90
2022-09-14T20:34:44.750Z,17.17
2022-09-14T20:37:16.547Z,20.60
2022-09-14T20:39:50.686Z,19.03
2022-09-14T20:42:20.306Z,16.10
2022-09-14T20:44:50.362Z,17.03
2022-09-14T20:47:22.204Z,18.07
2022-09-14T20:49:54.698Z,22.90
2022-09-14T20:52:26.457Z,17.07
2022-09-14T20:54:59.281Z,18.07
2022-09-14T20:57:27.963Z,19.73
2022-09-14T20:59:59.911Z,17.80
2022-09-14T21:02:31.566Z,17.67
2022-09-14T21:05:00.598Z,18.37
2022-09-14T21:07:33.451Z,15.27
2022-09-14T21:10:07.656Z,17.43
2022-09-14T21:12:37.087Z,19.57
2022-09-14T21:15:08.490Z,17.27
2022-09-14T21:17:40.143Z,20.27
2022-09-14T21:20:09.694Z,20.60
2022-09-14T21:22:40.943Z,16.60
2022-09-14T21:25:16.120Z,15.27
2022-09-14T21:27:49.436Z,20.27
2022-09-14T21:30:20.594Z,17.87
2022-09-14T21:32:51.139Z,17.43
2022-09-14T21:35:20.640Z,16.63
2022-09-14T21:37:50.548Z,16.10
2022-09-14T21:40:24.791Z,14.60
2022-09-14T21:42:58.689Z,17.03
2022-09-14T21:45:27.829Z,12.63
2022-09-14T21:47:56.534Z,18.30
2022-09-14T21:50:25.607Z,17.83
2022-09-14T21:52:57.874Z,19.53
2022-09-14T21:55:30.751Z,14.27
2022-09-14T21:58:01.584Z,14.97
2022-09-14T22:00:31.085Z,16.77
2022-09-14T22:02:59.625Z,20.43
2022-09-14T22:05:28.905Z,14.83
2022-09-14T22:07:58.025Z,15.90
2022-09-14T22:10:29.448Z,19.17
2022-09-14T22:12:59.682Z,15.53
2022-09-14T22:15:32.956Z,16.67
2022-09-14T22:18:03.878Z,15.43
2022-09-14T22:20:37.630Z,20.87
2022-09-14T22:23:10.713Z,17.87
2022-09-14T22:25:45.812Z,15.53
2022-09-14T22:28:14.808Z,15.20
2022-09-14T22:30:48.265Z,18.17
2022-09-14T22:33:20.604Z,16.50
2022-09-14T22:35:54.856Z,18.93
2022-09-14T22:38:25.887Z,14.77
2022-09-14T22:41:01.500Z,19.93
2022-09-14T22:43:35.766Z,18.73
2022-09-14T22:46:11.293Z,15.13
2022-09-14T22:48:41.367Z,17.73
2022-09-14T22:51:14.259Z,16.40
2022-09-14T22:53:43.406Z,16.80
2022-09-14T22:56:19.689Z,19.03
2022-09-14T22:58:52.096Z,15.50
2022-09-14T23:01:25.309Z,16.53
2022-09-14T23:03:58.190Z,13.97
2022-09-14T23:06:32.472Z,17.53
2022-09-14T23:09:02.105Z,16.07
2022-09-14T23:11:33.105Z,18.73
2022-09-14T23:14:01.742Z,19.57
2022-09-14T23:16:31.484Z,14.17
2022-09-14T23:19:01.205Z,13.93
2022-09-14T23:21:31.174Z,15.90
2022-09-14T23:24:01.912Z,18.03
2022-09-14T23:26:31.741Z,19.43
2022-09-14T23:29:02.834Z,17.73
2022-09-14T23:31:32.973Z,14.47
2022-09-14T23:34:02.917Z,17.23
2022-09-14T23:36:31.568Z,15.50
2022-09-14T23:39:00.288Z,18.30
2022-09-14T23:41:29.046Z,17.33
2022-09-14T23:43:58.751Z,17.17
2022-09-14T23:46:29.746Z,19.40
2022-09-14T23:48:58.282Z,17.37
2022-09-14T23:51:26.978Z,15.73
2022-09-14T23:53:55.192Z,16.90
2022-09-14T23:56:23.830Z,18.33
2022-09-14T23:58:52.418Z,19.80
